sensor_id;sensor_type;location;lat;lon;timestamp;P1;durP1;ratioP1;P2;durP2;ratioP2
17686;SDS011;8962;52.538;13.266;2022-09-21T00:00:39;7.78;;;4.93;;
17686;SDS011;8962;52.538;13.266;2022-09-21T00:03:07;9.63;;;4.90;;
17686;SDS011;8962;52.538;13.266;2022-09-21T00:05:34;6.10;;;4.60;;
17686;SDS011;8962;52.538;13.266;2022-09-21T00:08:02;7.38;;;4.60;;
17686;SDS011;8962;52.538;13.266;2022-09-21T00:10:30;8.65;;;5.03;;
17686;SDS011;8962;52.538;13.266;2022-09-21T00:12:58;5.65;;;4.78;;
17686;SDS011;8962;52.538;13.266;2022-09-21T00:15:28;6.90;;;4.80;;
17686;SDS011;8962;52.538;13.266;2022-09-21T00:17:57;6.15;;;4.70;;
17686;SDS011;8962;52.538;13.266;2022-09-21T00:20:25;6.82;;;5.07;;
17686;SDS011;8962;52.538;13.266;2022-09-21T00:22:53;8.90;;;4.63;;
17686;SDS011;8962;52.538;13.266;2022-09-21T00:25:20;9.07;;;4.97;;
17686;SDS011;8962;52.538;13.266;2022-09-21T00:27:47;8.82;;;4.28;;
17686;SDS011;8962;52.538;13.266;2022-09-21T00:30:16;6.25;;;4.80;;
17686;SDS011;8962;52.538;13.266;2022-09-21T00:32:47;9.73;;;4.90;;
17686;SDS011;8962;52.538;13.266;2022-09-21T00:35:15;6.53;;;5.18;;
17686;SDS011;8962;52.538;13.266;2022-09-21T00:37:42;6.05;;;4.57;;
17686;SDS011;8962;52.538;13.266;2022-09-21T00:40:10;7.40;;;4.88;;
17686;SDS011;8962;52.538;13.266;2022-09-21T00:42:37;6.75;;;4.90;;
17686;SDS011;8962;52.538;13.266;2022-09-21T00:45:05;6.32;;;4.95;;
17686;SDS011;8962;52.538;13.266;2022-09-21T00:47:46;6.28;;;5.00;;
17686;SDS011;8962;52.538;13.266;2022-09-21T00:50:17;8.50;;;5.15;;
17686;SDS011;8962;52.538;13.266;2022-09-21T00:52:48;8.52;;;5.60;;
17686;SDS011;8962;52.538;13.266;2022-09-21T00:55:19;7.75;;;5.32;;
17686;SDS011;8962;52.538;13.266;2022-09-21T00:57:51;6.93;;;5.03;;
17686;SDS011;8962;52.538;13.266;2022-09-21T01:00:20;7.05;;;5.28;;
17686;SDS011;8962;52.538;13.266;2022-09-21T01:02:49;5.38;;;4.78;;
17686;SDS011;8962;52.538;13.266;2022-09-21T01:05:16;5.72;;;4.60;;
17686;SDS011;8962;52.538;13.266;2022-09-21T01:07:45;11.20;;;4.72;;
17686;SDS011;8962;52.538;13.266;2022-09-21T01:10:14;8.63;;;4.85;;
17686;SDS011;8962;52.538;13.266;2022-09-21T01:12:50;9.43;;;4.65;;
17686;SDS011;8962;52.538;13.266;2022-09-21T01:15:31;7.03;;;4.68;;
17686;SDS011;8962;52.538;13.266;2022-09-21T01:18:07;5.28;;;4.35;;
17686;SDS011;8962;52.538;13.266;2022-09-21T01:21:04;8.07;;;4.65;;
17686;SDS011;8962;52.538;13.266;2022-09-21T01:23:44;5.80;;;4.65;;
17686;SDS011;8962;52.538;13.266;2022-09-21T01:26:31;7.57;;;4.85;;
17686;SDS011;8962;52.538;13.266;2022-09-21T01:29:14;8.77;;;4.55;;
17686;SDS011;8962;52.538;13.266;2022-09-21T01:31:45;7.55;;;4.40;;
17686;SDS011;8962;52.538;13.266;2022-09-21T01:34:21;6.20;;;4.22;;
17686;SDS011;8962;52.538;13.266;2022-09-21T01:36:53;7.13;;;4.18;;
17686;SDS011;8962;52.538;13.266;2022-09-21T01:39:24;5.47;;;4.07;;
17686;SDS011;8962;52.538;13.266;2022-09-21T01:41:52;5.43;;;4.22;;
17686;SDS011;8962;52.538;13.266;2022-09-21T01:44:24;6.38;;;4.13;;
17686;SDS011;8962;52.538;13.266;2022-09-21T01:46:54;5.78;;;4.32;;
17686;SDS011;8962;52.538;13.266;2022-09-21T01:49:25;7.63;;;4.38;;
17686;SDS011;8962;52.538;13.266;2022-09-21T01:51:59;6.95;;;4.00;;
17686;SDS011;8962;52.538;13.266;2022-09-21T01:54:32;7.22;;;4.68;;
17686;SDS011;8962;52.538;13.266;2022-09-21T01:57:04;6.32;;;4.20;;
17686;SDS011;8962;52.538;13.266;2022-09-21T01:59:36;8.15;;;4.50;;
17686;SDS011;8962;52.538;13.266;2022-09-21T02:02:12;7.45;;;4.47;;
17686;SDS011;8962;52.538;13.266;2022-09-21T02:04:44;8.75;;;4.40;;
17686;SDS011;8962;52.538;13.266;2022-09-21T02:07:11;6.82;;;4.28;;
17686;SDS011;8962;52.538;13.266;2022-09-21T02:09:38;6.13;;;4.22;;
17686;SDS011;8962;52.538;13.266;2022-09-21T02:12:07;7.78;;;4.45;;
17686;SDS011;8962;52.538;13.266;2022-09-21T02:14:36;6.05;;;4.50;;
17686;SDS011;8962;52.538;13.266;2022-09-21T02:17:05;6.60;;;4.93;;
17686;SDS011;8962;52.538;13.266;2022-09-21T02:19:43;6.13;;;4.53;;
17686;SDS011;8962;52.538;13.266;2022-09-21T02:22:16;7.18;;;4.78;;
17686;SDS011;8962;52.538;13.266;2022-09-21T02:24:54;6.78;;;4.80;;
17686;SDS011;8962;52.538;13.266;2022-09-21T02:27:31;7.45;;;4.30;;
17686;SDS011;8962;52.538;13.266;2022-09-21T02:30:06;9.25;;;5.22;;
17686;SDS011;8962;52.538;13.266;2022-09-21T02:32:40;6.88;;;4.80;;
17686;SDS011;8962;52.538;13.266;2022-09-21T02:35:16;6.97;;;4.80;;
17686;SDS011;8962;52.538;13.266;2022-09-21T02:37:52;9.88;;;5.38;;
17686;SDS011;8962;52.538;13.266;2022-09-21T02:40:25;9.07;;;4.95;;
17686;SDS011;8962;52.538;13.266;2022-09-21T02:42:55;8.35;;;5.60;;
17686;SDS011;8962;52.538;13.266;2022-09-21T02:45:29;7.35;;;5.55;;
17686;SDS011;8962;52.538;13.266;2022-09-21T02:48:01;10.85;;;6.10;;
17686;SDS011;8962;52.538;13.266;2022-09-21T02:50:33;7.93;;;5.22;;
17686;SDS011;8962;52.538;13.266;2022-09-21T02:53:04;9.13;;;5.55;;
17686;SDS011;8962;52.538;13.266;2022-09-21T02:55:37;9.43;;;5.35;;
17686;SDS011;8962;52.538;13.266;2022-09-21T02:58:05;10.80;;;5.63;;
17686;SDS011;8962;52.538;13.266;2022-09-21T03:00:38;7.13;;;5.28;;
17686;SDS011;8962;52.538;13.266;2022-09-21T03:03:12;6.55;;;5.22;;
17686;SDS011;8962;52.538;13.266;2022-09-21T03:05:42;8.40;;;5.05;;
17686;SDS011;8962;52.538;13.266;2022-09-21T03:08:11;7.47;;;5.13;;
17686;SDS011;8962;52.538;13.266;2022-09-21T03:10:38;7.97;;;4.90;;
17686;SDS011;8962;52.538;13.266;2022-09-21T03:13:05;10.75;;;5.05;;
17686;SDS011;8962;52.538;13.266;2022-09-21T03:15:33;8.85;;;5.10;;
17686;SDS011;8962;52.538;13.266;2022-09-21T03:18:02;7.30;;;4.88;;
17686;SDS011;8962;52.538;13.266;2022-09-21T03:20:30;13.98;;;5.30;;
17686;SDS011;8962;52.538;13.266;2022-09-21T03:22:57;10.32;;;5.40;;
17686;SDS011;8962;52.538;13.266;2022-09-21T03:25:24;6.30;;;4.88;;
17686;SDS011;8962;52.538;13.266;2022-09-21T03:27:53;7.95;;;4.97;;
17686;SDS011;8962;52.538;13.266;2022-09-21T03:30:20;8.85;;;4.88;;
17686;SDS011;8962;52.538;13.266;2022-09-21T03:32:48;8.80;;;4.93;;
17686;SDS011;8962;52.538;13.266;2022-09-21T03:35:18;7.15;;;4.60;;
17686;SDS011;8962;52.538;13.266;2022-09-21T03:37:47;10.05;;;5.00;;
17686;SDS011;8962;52.538;13.266;2022-09-21T03:40:15;5.63;;;4.50;;
17686;SDS011;8962;52.538;13.266;2022-09-21T03:42:43;6.38;;;5.03;;
17686;SDS011;8962;52.538;13.266;2022-09-21T03:45:11;7.30;;;5.32;;
17686;SDS011;8962;52.538;13.266;2022-09-21T03:47:38;6.88;;;4.60;;
17686;SDS011;8962;52.538;13.266;2022-09-21T03:50:06;7.13;;;4.75;;
17686;SDS011;8962;52.538;13.266;2022-09-21T03:52:35;5.97;;;4.60;;
17686;SDS011;8962;52.538;13.266;2022-09-21T03:55:03;8.65;;;4.93;;
17686;SDS011;8962;52.538;13.266;2022-09-21T03:57:31;9.25;;;5.18;;
17686;SDS011;8962;52.538;13.266;2022-09-21T03:59:59;7.70;;;5.00;;
17686;SDS011;8962;52.538;13.266;2022-09-21T04:02:29;8.25;;;4.80;;
17686;SDS011;8962;52.538;13.266;2022-09-21T04:04:59;7.72;;;4.80;;
17686;SDS011;8962;52.538;13.266;2022-09-21T04:07:29;10.35;;;5.47;;
17686;SDS011;8962;52.538;13.266;2022-09-21T04:09:57;6.68;;;4.70;;
17686;SDS011;8962;52.538;13.266;2022-09-21T04:12:24;9.30;;;5.82;;
17686;SDS011;8962;52.538;13.266;2022-09-21T04:14:51;12.23;;;5.20;;
17686;SDS011;8962;52.538;13.266;2022-09-21T04:17:18;8.20;;;4.85;;
17686;SDS011;8962;52.538;13.266;2022-09-21T04:19:45;9.10;;;5.40;;
17686;SDS011;8962;52.538;13.266;2022-09-21T04:22:13;7.35;;;5.50;;
17686;SDS011;8962;52.538;13.266;2022-09-21T04:24:40;8.02;;;5.22;;
17686;SDS011;8962;52.538;13.266;2022-09-21T04:27:09;9.20;;;5.15;;
17686;SDS011;8962;52.538;13.266;2022-09-21T04:29:36;8.85;;;5.25;;
17686;SDS011;8962;52.538;13.266;2022-09-21T04:32:03;8.57;;;5.25;;
17686;SDS011;8962;52.538;13.266;2022-09-21T04:34:31;9.52;;;4.63;;
17686;SDS011;8962;52.538;13.266;2022-09-21T04:36:58;5.75;;;4.68;;
17686;SDS011;8962;52.538;13.266;2022-09-21T04:39:25;9.02;;;5.18;;
17686;SDS011;8962;52.538;13.266;2022-09-21T04:41:52;8.05;;;5.15;;
17686;SDS011;8962;52.538;13.266;2022-09-21T04:44:20;10.05;;;5.35;;
17686;SDS011;8962;52.538;13.266;2022-09-21T04:46:47;8.23;;;5.18;;
17686;SDS011;8962;52.538;13.266;2022-09-21T04:49:14;6.70;;;5.30;;
17686;SDS011;8962;52.538;13.266;2022-09-21T04:51:41;12.38;;;5.55;;
17686;SDS011;8962;52.538;13.266;2022-09-21T04:54:10;9.93;;;5.55;;
17686;SDS011;8962;52.538;13.266;2022-09-21T04:56:37;10.35;;;6.15;;
17686;SDS011;8962;52.538;13.266;2022-09-21T04:59:04;9.38;;;5.63;;
17686;SDS011;8962;52.538;13.266;2022-09-21T05:01:32;10.73;;;5.90;;
17686;SDS011;8962;52.538;13.266;2022-09-21T05:04:00;9.63;;;5.72;;
17686;SDS011;8962;52.538;13.266;2022-09-21T05:06:27;12.18;;;6.70;;
17686;SDS011;8962;52.538;13.266;2022-09-21T05:08:54;13.10;;;6.28;;
17686;SDS011;8962;52.538;13.266;2022-09-21T05:11:40;9.32;;;5.60;;
17686;SDS011;8962;52.538;13.266;2022-09-21T05:14:07;14.27;;;5.85;;
17686;SDS011;8962;52.538;13.266;2022-09-21T05:16:36;11.98;;;5.90;;
17686;SDS011;8962;52.538;13.266;2022-09-21T05:19:03;11.82;;;6.43;;
17686;SDS011;8962;52.538;13.266;2022-09-21T05:21:31;12.15;;;7.25;;
17686;SDS011;8962;52.538;13.266;2022-09-21T05:23:57;13.18;;;6.47;;
17686;SDS011;8962;52.538;13.266;2022-09-21T05:26:24;15.82;;;7.07;;
17686;SDS011;8962;52.538;13.266;2022-09-21T05:28:52;18.17;;;6.97;;
17686;SDS011;8962;52.538;13.266;2022-09-21T05:34:16;13.23;;;7.07;;
17686;SDS011;8962;52.538;13.266;2022-09-21T05:36:59;9.95;;;6.00;;
17686;SDS011;8962;52.538;13.266;2022-09-21T05:39:29;12.18;;;6.70;;
17686;SDS011;8962;52.538;13.266;2022-09-21T05:41:58;11.13;;;6.20;;
17686;SDS011;8962;52.538;13.266;2022-09-21T05:44:25;10.18;;;6.38;;
17686;SDS011;8962;52.538;13.266;2022-09-21T05:46:56;11.75;;;5.90;;
17686;SDS011;8962;52.538;13.266;2022-09-21T05:49:31;9.70;;;5.57;;
17686;SDS011;8962;52.538;13.266;2022-09-21T05:52:07;12.38;;;5.78;;
17686;SDS011;8962;52.538;13.266;2022-09-21T05:54:45;10.25;;;5.75;;
17686;SDS011;8962;52.538;13.266;2022-09-21T05:57:27;14.57;;;6.35;;
17686;SDS011;8962;52.538;13.266;2022-09-21T06:00:09;10.68;;;6.38;;
17686;SDS011;8962;52.538;13.266;2022-09-21T06:05:30;12.32;;;6.07;;
17686;SDS011;8962;52.538;13.266;2022-09-21T06:07:57;10.35;;;5.30;;
17686;SDS011;8962;52.538;13.266;2022-09-21T06:10:24;10.00;;;5.55;;
17686;SDS011;8962;52.538;13.266;2022-09-21T06:12:52;13.77;;;5.78;;
17686;SDS011;8962;52.538;13.266;2022-09-21T06:15:19;11.68;;;5.68;;
17686;SDS011;8962;52.538;13.266;2022-09-21T06:17:46;13.15;;;5.53;;
17686;SDS011;8962;52.538;13.266;2022-09-21T06:20:15;12.27;;;5.95;;
17686;SDS011;8962;52.538;13.266;2022-09-21T06:22:42;17.70;;;5.93;;
17686;SDS011;8962;52.538;13.266;2022-09-21T06:25:09;14.23;;;6.22;;
17686;SDS011;8962;52.538;13.266;2022-09-21T06:27:36;11.88;;;5.20;;
17686;SDS011;8962;52.538;13.266;2022-09-21T06:30:03;11.20;;;5.38;;
17686;SDS011;8962;52.538;13.266;2022-09-21T06:32:30;11.75;;;5.20;;
17686;SDS011;8962;52.538;13.266;2022-09-21T06:34:57;11.55;;;5.50;;
17686;SDS011;8962;52.538;13.266;2022-09-21T06:37:26;9.05;;;5.25;;
17686;SDS011;8962;52.538;13.266;2022-09-21T06:39:55;9.18;;;4.88;;
17686;SDS011;8962;52.538;13.266;2022-09-21T06:42:22;7.47;;;4.45;;
17686;SDS011;8962;52.538;13.266;2022-09-21T06:44:49;6.63;;;4.25;;
17686;SDS011;8962;52.538;13.266;2022-09-21T06:47:16;7.80;;;4.68;;
17686;SDS011;8962;52.538;13.266;2022-09-21T06:49:43;7.22;;;4.50;;
17686;SDS011;8962;52.538;13.266;2022-09-21T06:52:10;6.35;;;4.43;;
17686;SDS011;8962;52.538;13.266;2022-09-21T06:54:38;7.30;;;4.13;;
17686;SDS011;8962;52.538;13.266;2022-09-21T06:57:06;7.82;;;4.13;;
17686;SDS011;8962;52.538;13.266;2022-09-21T06:59:33;7.43;;;4.35;;
17686;SDS011;8962;52.538;13.266;2022-09-21T07:02:00;8.05;;;4.25;;
17686;SDS011;8962;52.538;13.266;2022-09-21T07:04:27;7.93;;;4.40;;
17686;SDS011;8962;52.538;13.266;2022-09-21T07:06:56;8.90;;;4.30;;
17686;SDS011;8962;52.538;13.266;2022-09-21T07:09:25;8.40;;;4.50;;
17686;SDS011;8962;52.538;13.266;2022-09-21T07:11:53;8.57;;;4.93;;
17686;SDS011;8962;52.538;13.266;2022-09-21T07:14:20;6.80;;;4.05;;
17686;SDS011;8962;52.538;13.266;2022-09-21T07:16:49;8.00;;;4.57;;
17686;SDS011;8962;52.538;13.266;2022-09-21T07:19:18;7.82;;;4.93;;
17686;SDS011;8962;52.538;13.266;2022-09-21T07:21:44;7.78;;;4.60;;
17686;SDS011;8962;52.538;13.266;2022-09-21T07:24:12;9.30;;;4.90;;
17686;SDS011;8962;52.538;13.266;2022-09-21T07:26:39;7.80;;;4.20;;
17686;SDS011;8962;52.538;13.266;2022-09-21T07:29:07;9.55;;;4.38;;
17686;SDS011;8962;52.538;13.266;2022-09-21T07:31:34;6.63;;;4.05;;
17686;SDS011;8962;52.538;13.266;2022-09-21T07:34:01;6.18;;;4.50;;
17686;SDS011;8962;52.538;13.266;2022-09-21T07:36:28;10.52;;;4.68;;
17686;SDS011;8962;52.538;13.266;2022-09-21T07:38:55;10.35;;;4.88;;
17686;SDS011;8962;52.538;13.266;2022-09-21T07:41:22;8.27;;;4.68;;
17686;SDS011;8962;52.538;13.266;2022-09-21T07:43:49;8.48;;;4.43;;
17686;SDS011;8962;52.538;13.266;2022-09-21T07:46:17;8.07;;;4.38;;
17686;SDS011;8962;52.538;13.266;2022-09-21T07:48:44;7.00;;;4.60;;
17686;SDS011;8962;52.538;13.266;2022-09-21T07:51:12;7.38;;;4.50;;
17686;SDS011;8962;52.538;13.266;2022-09-21T07:53:41;7.72;;;4.43;;
17686;SDS011;8962;52.538;13.266;2022-09-21T07:56:10;13.07;;;4.95;;
17686;SDS011;8962;52.538;13.266;2022-09-21T07:58:39;7.15;;;4.35;;
17686;SDS011;8962;52.538;13.266;2022-09-21T08:01:27;7.03;;;4.50;;
17686;SDS011;8962;52.538;13.266;2022-09-21T08:03:55;9.38;;;4.78;;
17686;SDS011;8962;52.538;13.266;2022-09-21T08:06:23;8.07;;;4.68;;
17686;SDS011;8962;52.538;13.266;2022-09-21T08:08:51;6.60;;;4.82;;
17686;SDS011;8962;52.538;13.266;2022-09-21T08:11:20;6.43;;;4.57;;
17686;SDS011;8962;52.538;13.266;2022-09-21T08:13:50;8.25;;;4.85;;
17686;SDS011;8962;52.538;13.266;2022-09-21T08:16:18;7.13;;;4.30;;
17686;SDS011;8962;52.538;13.266;2022-09-21T08:18:47;9.35;;;4.32;;
17686;SDS011;8962;52.538;13.266;2022-09-21T08:21:14;5.82;;;4.05;;
17686;SDS011;8962;52.538;13.266;2022-09-21T08:23:41;6.50;;;4.25;;
17686;SDS011;8962;52.538;13.266;2022-09-21T08:26:10;4.30;;;3.80;;
17686;SDS011;8962;52.538;13.266;2022-09-21T08:28:43;7.88;;;4.45;;
17686;SDS011;8962;52.538;13.266;2022-09-21T08:31:13;5.53;;;3.60;;
17686;SDS011;8962;52.538;13.266;2022-09-21T08:33:43;7.40;;;4.25;;
17686;SDS011;8962;52.538;13.266;2022-09-21T08:36:12;6.15;;;4.30;;
17686;SDS011;8962;52.538;13.266;2022-09-21T08:38:39;6.45;;;4.38;;
17686;SDS011;8962;52.538;13.266;2022-09-21T08:41:12;7.35;;;4.32;;
17686;SDS011;8962;52.538;13.266;2022-09-21T08:43:42;5.70;;;4.40;;
17686;SDS011;8962;52.538;13.266;2022-09-21T08:46:11;7.38;;;4.15;;
17686;SDS011;8962;52.538;13.266;2022-09-21T08:48:42;7.80;;;4.43;;
17686;SDS011;8962;52.538;13.266;2022-09-21T08:51:14;6.95;;;4.68;;
17686;SDS011;8962;52.538;13.266;2022-09-21T08:53:47;7.80;;;4.00;;
17686;SDS011;8962;52.538;13.266;2022-09-21T08:56:19;6.47;;;4.25;;
17686;SDS011;8962;52.538;13.266;2022-09-21T08:58:47;8.38;;;4.50;;
17686;SDS011;8962;52.538;13.266;2022-09-21T09:01:19;8.00;;;4.80;;
17686;SDS011;8962;52.538;13.266;2022-09-21T09:06:56;8.27;;;4.43;;
17686;SDS011;8962;52.538;13.266;2022-09-21T09:09:38;5.00;;;4.20;;
17686;SDS011;8962;52.538;13.266;2022-09-21T09:12:15;5.30;;;4.10;;
17686;SDS011;8962;52.538;13.266;2022-09-21T09:14:57;6.13;;;3.85;;
17686;SDS011;8962;52.538;13.266;2022-09-21T09:17:36;5.30;;;3.72;;
17686;SDS011;8962;52.538;13.266;2022-09-21T09:20:12;4.85;;;3.60;;
17686;SDS011;8962;52.538;13.266;2022-09-21T09:22:46;5.68;;;3.72;;
17686;SDS011;8962;52.538;13.266;2022-09-21T09:25:19;5.75;;;4.07;;
17686;SDS011;8962;52.538;13.266;2022-09-21T09:27:47;5.88;;;3.30;;
17686;SDS011;8962;52.538;13.266;2022-09-21T09:30:19;5.25;;;3.40;;
17686;SDS011;8962;52.538;13.266;2022-09-21T09:32:51;4.93;;;3.10;;
17686;SDS011;8962;52.538;13.266;2022-09-21T09:35:26;5.82;;;3.45;;
17686;SDS011;8962;52.538;13.266;2022-09-21T09:37:57;4.97;;;3.28;;
17686;SDS011;8962;52.538;13.266;2022-09-21T09:40:32;5.55;;;3.03;;
17686;SDS011;8962;52.538;13.266;2022-09-21T09:43:24;8.00;;;3.85;;
17686;SDS011;8962;52.538;13.266;2022-09-21T09:46:01;5.38;;;3.10;;
17686;SDS011;8962;52.538;13.266;2022-09-21T09:48:45;4.35;;;3.22;;
17686;SDS011;8962;52.538;13.266;2022-09-21T09:51:26;10.10;;;5.45;;
17686;SDS011;8962;52.538;13.266;2022-09-21T09:53:55;9.98;;;3.20;;
17686;SDS011;8962;52.538;13.266;2022-09-21T09:56:25;4.80;;;2.50;;
17686;SDS011;8962;52.538;13.266;2022-09-21T09:58:53;3.80;;;1.85;;
17686;SDS011;8962;52.538;13.266;2022-09-21T10:01:37;5.15;;;2.00;;
17686;SDS011;8962;52.538;13.266;2022-09-21T10:04:06;3.30;;;1.40;;
17686;SDS011;8962;52.538;13.266;2022-09-21T10:06:34;4.00;;;1.50;;
17686;SDS011;8962;52.538;13.266;2022-09-21T10:09:09;1.77;;;1.30;;
17686;SDS011;8962;52.538;13.266;2022-09-21T10:11:44;2.78;;;1.30;;
17686;SDS011;8962;52.538;13.266;2022-09-21T10:14:13;1.67;;;1.30;;
17686;SDS011;8962;52.538;13.266;2022-09-21T10:16:44;2.65;;;1.30;;
17686;SDS011;8962;52.538;13.266;2022-09-21T10:19:14;2.15;;;1.60;;
17686;SDS011;8962;52.538;13.266;2022-09-21T10:21:47;3.53;;;1.20;;
17686;SDS011;8962;52.538;13.266;2022-09-21T10:24:22;3.72;;;1.10;;
17686;SDS011;8962;52.538;13.266;2022-09-21T10:26:53;1.58;;;1.10;;
17686;SDS011;8962;52.538;13.266;2022-09-21T10:29:29;1.55;;;0.90;;
17686;SDS011;8962;52.538;13.266;2022-09-21T10:31:58;4.65;;;1.77;;
17686;SDS011;8962;52.538;13.266;2022-09-21T10:34:28;2.40;;;1.38;;
17686;SDS011;8962;52.538;13.266;2022-09-21T10:36:57;7.68;;;4.82;;
17686;SDS011;8962;52.538;13.266;2022-09-21T10:39:28;2.05;;;1.15;;
17686;SDS011;8962;52.538;13.266;2022-09-21T10:41:56;3.33;;;1.40;;
17686;SDS011;8962;52.538;13.266;2022-09-21T10:44:26;2.08;;;1.00;;
17686;SDS011;8962;52.538;13.266;2022-09-21T10:46:59;1.55;;;0.85;;
17686;SDS011;8962;52.538;13.266;2022-09-21T10:49:41;3.83;;;2.20;;
17686;SDS011;8962;52.538;13.266;2022-09-21T10:52:11;1.10;;;1.00;;
17686;SDS011;8962;52.538;13.266;2022-09-21T10:54:40;1.70;;;1.02;;
17686;SDS011;8962;52.538;13.266;2022-09-21T10:57:13;1.45;;;1.00;;
17686;SDS011;8962;52.538;13.266;2022-09-21T10:59:41;2.90;;;1.80;;
17686;SDS011;8962;52.538;13.266;2022-09-21T11:02:22;1.65;;;1.15;;
17686;SDS011;8962;52.538;13.266;2022-09-21T11:05:11;2.03;;;1.20;;
17686;SDS011;8962;52.538;13.266;2022-09-21T11:07:44;3.28;;;1.00;;
17686;SDS011;8962;52.538;13.266;2022-09-21T11:10:18;2.05;;;1.10;;
17686;SDS011;8962;52.538;13.266;2022-09-21T11:12:56;1.27;;;1.10;;
17686;SDS011;8962;52.538;13.266;2022-09-21T11:15:39;3.80;;;1.50;;
17686;SDS011;8962;52.538;13.266;2022-09-21T11:18:15;2.10;;;1.30;;
17686;SDS011;8962;52.538;13.266;2022-09-21T11:20:48;2.88;;;1.08;;
17686;SDS011;8962;52.538;13.266;2022-09-21T11:23:22;2.25;;;1.20;;
17686;SDS011;8962;52.538;13.266;2022-09-21T11:26:03;2.67;;;1.17;;
17686;SDS011;8962;52.538;13.266;2022-09-21T11:28:37;2.40;;;1.00;;
17686;SDS011;8962;52.538;13.266;2022-09-21T11:31:16;1.90;;;1.00;;
17686;SDS011;8962;52.538;13.266;2022-09-21T11:34:19;2.25;;;1.00;;
17686;SDS011;8962;52.538;13.266;2022-09-21T11:36:57;2.05;;;1.00;;
17686;SDS011;8962;52.538;13.266;2022-09-21T11:39:38;1.85;;;1.10;;
17686;SDS011;8962;52.538;13.266;2022-09-21T11:42:25;1.83;;;1.10;;
17686;SDS011;8962;52.538;13.266;2022-09-21T11:45:02;1.42;;;1.10;;
17686;SDS011;8962;52.538;13.266;2022-09-21T11:47:44;1.92;;;1.20;;
17686;SDS011;8962;52.538;13.266;2022-09-21T11:50:33;3.03;;;1.02;;
17686;SDS011;8962;52.538;13.266;2022-09-21T11:53:13;1.38;;;1.10;;
17686;SDS011;8962;52.538;13.266;2022-09-21T11:55:53;1.75;;;0.70;;
17686;SDS011;8962;52.538;13.266;2022-09-21T11:58:45;1.20;;;0.90;;
17686;SDS011;8962;52.538;13.266;2022-09-21T12:01:28;3.92;;;1.00;;
17686;SDS011;8962;52.538;13.266;2022-09-21T12:07:05;2.05;;;0.85;;
17686;SDS011;8962;52.538;13.266;2022-09-21T12:09:46;2.80;;;1.13;;
17686;SDS011;8962;52.538;13.266;2022-09-21T12:12:16;1.08;;;0.90;;
17686;SDS011;8962;52.538;13.266;2022-09-21T12:14:48;2.00;;;1.30;;
17686;SDS011;8962;52.538;13.266;2022-09-21T12:17:21;2.05;;;0.90;;
17686;SDS011;8962;52.538;13.266;2022-09-21T12:19:54;2.45;;;1.00;;
17686;SDS011;8962;52.538;13.266;2022-09-21T12:22:28;2.20;;;1.00;;
17686;SDS011;8962;52.538;13.266;2022-09-21T12:25:01;2.50;;;1.05;;
17686;SDS011;8962;52.538;13.266;2022-09-21T12:27:38;3.40;;;1.10;;
17686;SDS011;8962;52.538;13.266;2022-09-21T12:30:11;2.75;;;1.10;;
17686;SDS011;8962;52.538;13.266;2022-09-21T12:32:45;1.13;;;0.95;;
17686;SDS011;8962;52.538;13.266;2022-09-21T12:35:19;1.27;;;0.90;;
17686;SDS011;8962;52.538;13.266;2022-09-21T12:37:53;2.67;;;1.20;;
17686;SDS011;8962;52.538;13.266;2022-09-21T12:40:27;1.10;;;1.00;;
17686;SDS011;8962;52.538;13.266;2022-09-21T12:43:02;2.35;;;1.08;;
17686;SDS011;8962;52.538;13.266;2022-09-21T12:45:43;1.98;;;1.02;;
17686;SDS011;8962;52.538;13.266;2022-09-21T12:48:22;1.95;;;1.27;;
17686;SDS011;8962;52.538;13.266;2022-09-21T12:50:56;1.65;;;1.10;;
17686;SDS011;8962;52.538;13.266;2022-09-21T12:53:29;2.22;;;1.05;;
17686;SDS011;8962;52.538;13.266;2022-09-21T12:56:02;1.77;;;1.00;;
17686;SDS011;8962;52.538;13.266;2022-09-21T12:58:52;1.60;;;0.98;;
17686;SDS011;8962;52.538;13.266;2022-09-21T13:01:29;1.10;;;0.90;;
17686;SDS011;8962;52.538;13.266;2022-09-21T13:04:10;3.42;;;1.23;;
17686;SDS011;8962;52.538;13.266;2022-09-21T13:06:58;1.33;;;0.80;;
17686;SDS011;8962;52.538;13.266;2022-09-21T13:09:41;4.32;;;1.08;;
17686;SDS011;8962;52.538;13.266;2022-09-21T13:12:13;3.20;;;1.00;;
17686;SDS011;8962;52.538;13.266;2022-09-21T13:14:46;2.53;;;1.20;;
17686;SDS011;8962;52.538;13.266;2022-09-21T13:17:20;2.85;;;1.38;;
17686;SDS011;8962;52.538;13.266;2022-09-21T13:19:54;1.83;;;0.95;;
17686;SDS011;8962;52.538;13.266;2022-09-21T13:22:24;1.33;;;0.80;;
17686;SDS011;8962;52.538;13.266;2022-09-21T13:25:00;4.93;;;1.10;;
17686;SDS011;8962;52.538;13.266;2022-09-21T13:30:27;4.25;;;1.33;;
17686;SDS011;8962;52.538;13.266;2022-09-21T13:32:58;1.15;;;0.80;;
17686;SDS011;8962;52.538;13.266;2022-09-21T13:38:26;1.17;;;0.88;;
17686;SDS011;8962;52.538;13.266;2022-09-21T13:40:56;2.53;;;0.90;;
17686;SDS011;8962;52.538;13.266;2022-09-21T13:43:41;1.55;;;0.93;;
17686;SDS011;8962;52.538;13.266;2022-09-21T13:49:14;3.72;;;0.93;;
17686;SDS011;8962;52.538;13.266;2022-09-21T13:51:49;3.50;;;1.05;;
17686;SDS011;8962;52.538;13.266;2022-09-21T13:54:18;1.13;;;0.90;;
17686;SDS011;8962;52.538;13.266;2022-09-21T13:56:55;3.10;;;0.90;;
17686;SDS011;8962;52.538;13.266;2022-09-21T13:59:26;2.80;;;1.00;;
17686;SDS011;8962;52.538;13.266;2022-09-21T14:01:53;1.20;;;0.90;;
17686;SDS011;8962;52.538;13.266;2022-09-21T14:04:24;2.67;;;0.80;;
17686;SDS011;8962;52.538;13.266;2022-09-21T14:06:53;1.65;;;0.90;;
17686;SDS011;8962;52.538;13.266;2022-09-21T14:09:25;1.55;;;0.90;;
17686;SDS011;8962;52.538;13.266;2022-09-21T14:11:57;3.33;;;1.00;;
17686;SDS011;8962;52.538;13.266;2022-09-21T14:14:27;1.95;;;0.65;;
17686;SDS011;8962;52.538;13.266;2022-09-21T14:16:57;5.25;;;1.08;;
17686;SDS011;8962;52.538;13.266;2022-09-21T14:22:37;1.50;;;0.90;;
17686;SDS011;8962;52.538;13.266;2022-09-21T14:25:19;1.17;;;0.93;;
17686;SDS011;8962;52.538;13.266;2022-09-21T14:27:50;1.17;;;0.85;;
17686;SDS011;8962;52.538;13.266;2022-09-21T14:30:17;1.40;;;0.80;;
17686;SDS011;8962;52.538;13.266;2022-09-21T14:32:48;1.73;;;1.08;;
17686;SDS011;8962;52.538;13.266;2022-09-21T14:35:20;1.40;;;0.93;;
17686;SDS011;8962;52.538;13.266;2022-09-21T14:37:52;1.15;;;0.90;;
17686;SDS011;8962;52.538;13.266;2022-09-21T14:40:22;2.45;;;0.88;;
17686;SDS011;8962;52.538;13.266;2022-09-21T14:42:51;3.65;;;0.93;;
17686;SDS011;8962;52.538;13.266;2022-09-21T14:45:22;1.10;;;1.00;;
17686;SDS011;8962;52.538;13.266;2022-09-21T14:47:55;2.28;;;1.08;;
17686;SDS011;8962;52.538;13.266;2022-09-21T14:50:31;5.15;;;1.30;;
17686;SDS011;8962;52.538;13.266;2022-09-21T14:53:17;1.27;;;1.10;;
17686;SDS011;8962;52.538;13.266;2022-09-21T14:56:07;3.67;;;1.10;;
17686;SDS011;8962;52.538;13.266;2022-09-21T14:58:55;3.10;;;1.10;;
17686;SDS011;8962;52.538;13.266;2022-09-21T15:01:36;3.78;;;1.23;;
17686;SDS011;8962;52.538;13.266;2022-09-21T15:07:02;1.65;;;1.10;;
17686;SDS011;8962;52.538;13.266;2022-09-21T15:13:16;2.38;;;1.10;;
17686;SDS011;8962;52.538;13.266;2022-09-21T15:16:03;1.73;;;1.00;;
17686;SDS011;8962;52.538;13.266;2022-09-21T15:18:44;1.15;;;0.93;;
17686;SDS011;8962;52.538;13.266;2022-09-21T15:21:20;1.98;;;1.00;;
17686;SDS011;8962;52.538;13.266;2022-09-21T15:23:50;2.55;;;1.00;;
17686;SDS011;8962;52.538;13.266;2022-09-21T15:26:21;2.53;;;1.00;;
17686;SDS011;8962;52.538;13.266;2022-09-21T15:28:52;1.77;;;1.27;;
17686;SDS011;8962;52.538;13.266;2022-09-21T15:31:20;1.38;;;1.05;;
17686;SDS011;8962;52.538;13.266;2022-09-21T15:33:47;1.58;;;1.05;;
17686;SDS011;8962;52.538;13.266;2022-09-21T15:36:20;1.70;;;0.90;;
17686;SDS011;8962;52.538;13.266;2022-09-21T15:38:49;1.35;;;1.10;;
17686;SDS011;8962;52.538;13.266;2022-09-21T15:44:11;1.83;;;1.30;;
17686;SDS011;8962;52.538;13.266;2022-09-21T15:46:40;1.80;;;1.00;;